Terminal Aerodrome Forecast
Issued by NWS

Home | Current Version | Previous Version | Text Only | Print | Product List | Glossary On
Versions: 1 2 3 4 5 6 7 8 9 10 11 12 13 14 15
035
FTUS45 KABQ 290937 AAB
TAFLVS
TAF AMD
KLVS 290937Z 2910/3006 03015KT P6SM VCSH SCT010 BKN030
     FM291300 02018G28KT P6SM BKN025
     FM291800 02016G26KT P6SM BKN040
     FM300100 01010KT P6SM SCT035=

USA.gov is the U.S. government's official web portal to all federal, state and local government web resources and services.